Valldemossa, Spain

6:42 AM CEST on August 30, 2015 (GMT +0200)
IPMVALLD5 | | Change Station
CLOSE
Current Station
Personal Weather Station
Location: Valldemossa II, ILLESBA
Elevation: 1400 ft
Nearby Weather Stations

Elev 1400 ft 39.71 °N, 2.63 °E | Updated 12 minutes ago

Mostly Cloudy
Mostly Cloudy
72.5 °F
Feels Like 72 °F
N
0.0
Wind Variable Wind from NE
Gusts 0.0 mph

Today
High -- | Low -- °F
--% Chance of Precip.
Yesterday
High -- | Low -- °F
Precip. -- in
7:15 AM 8:24 PM
Full, 100% visible
Pressure 30.04 in
Visibility 6.2 miles
Clouds Few 2000 ft
Mostly Cloudy 3000 ft
Heat Index 72 °F
Dew Point 67 °F
Humidity 83%
Rainfall 0.00 in
Snow Depth Not available.
UV 0 out of 12
Pollen Not available.
Air Quality Not available.
Flu Activity Not available.
METAR LEPA 300430Z 03005KT 9999 FEW020 BKN030 26/23 Q1017 NOSIG
Pressure 30.04 in
Visibility 6.2 miles
Clouds Few 2000 ft
Mostly Cloudy 3000 ft
Heat Index 72 °F
Dew Point 67 °F
Humidity 83%
Rainfall 0.00 in
Snow Depth Not available.
UV 0 out of 12
Pollen Not available.
Air Quality Not available.
Flu Activity Not available.
METAR LEPA 300430Z 03005KT 9999 FEW020 BKN030 26/23 Q1017 NOSIG

10-Day Weather Forecast

×

Almanac

Astronomy

Aug. 30, 2015 Rise Set
Actual Time
Civil Twilight
Nautical Twilight
Astronomical Twilight
Moon
Length of Visible Light
Length of Day
Tomorrow will be .
, % of the Moon is Illuminated

Today's Extremes

Country Highs Country Lows

Community

WunderPhotos

Upload Photos

1,850,887 photos uploaded!

WunderBlogs® & News

Nearby

Air Quality

  Air Quality AQ Index Pollutant
Not available.

Snow Depth

Station Depth Elevation

Earthquake Activity

City Distance Mag. Time & Date
Minimum magnitude displayed is 2.5.

Coastal Water Temperatures

Place Temperature

Stations

Nearby Weather Stations

Station Location Temp. Windchill Dew Point Humidity Wind Precip. Elev Updated Type